Latest Weather Observations for Collie East

IDW60801

Issued at 5:02 pm WST Sunday 5 July 2015 (issued every 30 minutes, with the page automatically refreshed every 10 minutes)

About weather observations | Map of weather stations | Latest weather observations for WA | Other Formats
Station Details ID: 009994 Name: COLLIE EAST Lat: -33.36 Lon: 116.17 Height: 200.0 m
Data from the previous 72 hours. | See also: Recent months at Collie East
Date/Time
WST
Temp
°C
App
Temp
°C
Dew
Point
Rel
Hum
%
Delta-T
°C
Wind Press
QNH
hPa
Press
MSL
hPa
Rain
since 9 am
mm
Dir
 
Spd
km/h
Gust
km/h
Spd
kts
Gust
kts
05/05:00pm 15.3 13.1 7.8 61 3.8 W 9 15 5 8 - - 0.0
05/04:30pm 16.5 14.4 8.2 58 4.3 WNW 9 15 5 8 - - 0.0
05/04:00pm 17.2 15.0 7.8 54 4.8 W 9 17 5 9 - - 0.0
05/03:30pm 17.9 16.4 9.3 57 4.5 W 7 11 4 6 - - 0.0
05/03:00pm 17.9 16.1 9.3 57 4.5 W 9 13 5 7 - - 0.0
05/02:30pm 17.9 16.4 9.3 57 4.5 W 7 11 4 6 - - 0.0
05/02:00pm 18.1 16.8 10.0 59 4.3 WNW 7 15 4 8 - - 0.0
05/01:30pm 18.2 16.3 10.6 61 4.1 WNW 11 20 6 11 - - 0.0
05/01:00pm 17.3 15.6 9.7 61 4.0 W 9 15 5 8 - - 0.0
05/12:30pm 15.5 13.8 9.8 69 3.0 NW 9 15 5 8 - - 0.0
05/12:00pm 15.4 13.7 9.7 69 3.0 NW 9 13 5 7 - - 0.0
05/11:30am 17.0 15.5 10.6 66 3.4 NNW 9 15 5 8 - - 0.0
05/11:00am 16.1 14.9 10.2 68 3.1 N 7 9 4 5 - - 0.0
05/10:30am 15.2 14.4 11.2 77 2.2 NW 6 9 3 5 - - 0.0
05/10:00am 13.7 14.4 12.1 90 0.9 CALM 0 0 0 0 - - 0.0
05/09:30am 12.4 12.9 11.6 95 0.4 CALM 0 0 0 0 - - 0.0
05/09:00am 11.3 11.5 10.5 95 0.4 CALM 0 0 0 0 - - 0.6
05/08:30am 10.4 10.3 9.6 95 0.4 CALM 0 0 0 0 - - 0.6
05/08:00am 9.7 9.4 8.8 94 0.4 CALM 0 0 0 0 - - 0.6
05/07:30am 9.7 9.4 8.8 94 0.4 CALM 0 0 0 0 - - 0.6
05/07:00am 10.7 10.7 9.8 94 0.5 CALM 0 0 0 0 - - 0.6
05/06:30am 11.5 11.7 10.7 95 0.4 CALM 0 0 0 0 - - 0.6
05/06:00am 11.4 11.6 10.6 95 0.4 CALM 0 0 0 0 - - 0.4
05/05:30am 11.3 11.5 10.5 95 0.4 CALM 0 0 0 0 - - 0.4
05/05:00am 11.2 11.4 10.4 95 0.4 CALM 0 0 0 0 - - 0.4
05/04:30am 11.1 11.2 10.3 95 0.4 CALM 0 0 0 0 - - 0.4
05/04:00am 10.9 11.0 10.1 95 0.4 CALM 0 2 0 1 - - 0.4
05/03:30am 10.7 10.0 9.9 95 0.4 S 4 9 2 5 - - 0.2
05/03:00am 9.2 8.8 8.3 94 0.4 CALM 0 0 0 0 - - 0.0
05/02:30am 8.6 8.1 7.7 94 0.4 CALM 0 0 0 0 - - 0.0
05/02:00am 8.5 7.9 7.4 93 0.5 CALM 0 0 0 0 - - 0.0
05/01:30am 8.4 7.8 7.3 93 0.5 CALM 0 0 0 0 - - 0.0
05/01:00am 8.7 8.1 7.6 93 0.5 CALM 0 0 0 0 - - 0.0
05/12:30am 9.1 8.6 8.0 93 0.5 CALM 0 0 0 0 - - 0.0
05/12:00am 9.0 8.5 7.9 93 0.5 CALM 0 0 0 0 - - 0.0
 
Date/Time
WST
Temp
°C
App
Temp
°C
Dew
Point
Rel
Hum
%
Delta-T
°C
Wind Press
QNH
hPa
Press
MSL
hPa
Rain
since 9 am
mm
Dir
 
Spd
km/h
Gust
km/h
Spd
kts
Gust
kts
04/11:30pm 8.9 8.4 7.8 93 0.5 CALM 0 0 0 0 - - 0.0
04/11:00pm 7.6 6.7 6.2 91 0.6 CALM 0 0 0 0 - - 0.0
04/10:30pm 8.3 7.6 6.9 91 0.7 CALM 0 0 0 0 - - 0.0
04/10:00pm 9.1 8.6 7.7 91 0.7 CALM 0 0 0 0 - - 0.0
04/09:30pm 9.8 9.4 8.2 90 0.8 CALM 0 0 0 0 - - 0.0
04/09:00pm 10.6 10.4 8.9 89 0.8 CALM 0 0 0 0 - - 0.0
04/08:30pm 11.0 10.8 8.9 87 1.1 CALM 0 0 0 0 - - 0.0
04/08:00pm 11.7 11.5 9.1 84 1.3 CALM 0 0 0 0 - - 0.0
04/07:30pm 12.7 12.6 9.3 80 1.7 CALM 0 0 0 0 - - 0.0
04/07:00pm 13.7 12.5 9.6 76 2.1 N 6 7 3 4 - - 0.0
04/06:30pm 14.1 14.0 9.3 73 2.5 CALM 0 0 0 0 - - 0.0
04/06:00pm 14.5 13.2 9.1 70 2.8 WNW 6 13 3 7 - - 0.0
04/05:30pm 14.9 13.4 9.3 69 2.9 W 7 11 4 6 - - 0.0
04/05:00pm 15.7 13.8 9.1 65 3.4 W 9 17 5 9 - - 0.0
04/04:30pm 16.1 14.6 10.4 69 3.0 W 9 20 5 11 - - 0.0
04/04:00pm 17.1 15.3 10.9 67 3.4 WNW 11 24 6 13 - - 0.0
04/03:30pm 17.8 15.4 11.4 66 3.5 WNW 15 28 8 15 - - 0.0
04/03:00pm 17.8 15.8 11.6 67 3.4 WNW 13 20 7 11 - - 0.0
04/02:30pm 17.9 15.3 10.8 63 3.9 WNW 15 24 8 13 - - 0.0
04/02:00pm 18.4 16.4 11.5 64 3.8 WNW 13 20 7 11 - - 0.0
04/01:30pm 17.9 16.0 11.9 68 3.3 WNW 13 20 7 11 - - 0.0
04/01:00pm 18.3 17.3 12.3 68 3.4 W 9 20 5 11 - - 0.0
04/12:30pm 17.2 16.0 11.7 70 3.0 WNW 9 17 5 9 - - 0.0
04/12:00pm 16.9 16.3 12.4 75 2.5 W 7 17 4 9 - - 0.0
04/11:30am 16.8 15.8 12.3 75 2.5 W 9 15 5 8 - - 0.0
04/11:00am 16.8 16.3 12.5 76 2.4 WNW 7 13 4 7 - - 0.0
04/10:30am 17.0 16.5 12.7 76 2.4 WNW 7 13 4 7 - - 0.0
04/10:00am 16.4 15.6 12.9 80 2.0 NW 9 15 5 8 - - 0.0
04/09:30am 15.7 16.6 13.9 89 1.0 WNW 2 9 1 5 - - 0.0
04/09:00am 13.9 14.8 13.0 94 0.5 CALM 0 0 0 0 - - 0.2
04/08:30am 12.5 13.0 11.7 95 0.4 CALM 0 0 0 0 - - 0.2
04/08:00am 11.9 12.3 11.1 95 0.4 CALM 0 0 0 0 - - 0.2
04/07:30am 11.8 12.1 11.0 95 0.4 CALM 0 0 0 0 - - 0.2
04/07:00am 11.6 11.8 10.7 94 0.5 CALM 0 0 0 0 - - 0.0
04/06:30am 11.6 11.8 10.7 94 0.5 CALM 0 0 0 0 - - 0.0
04/06:00am 11.8 12.1 10.9 94 0.5 CALM 0 0 0 0 - - 0.0
04/05:30am 12.4 12.9 11.5 94 0.5 CALM 0 0 0 0 - - 0.0
04/05:00am 12.8 13.4 11.9 94 0.5 CALM 0 0 0 0 - - 0.0
04/04:30am 12.9 13.5 12.0 94 0.5 CALM 0 0 0 0 - - 0.0
04/04:00am 13.1 13.8 12.2 94 0.5 CALM 0 0 0 0 - - 0.0
04/03:30am 13.3 14.1 12.4 94 0.5 CALM 0 0 0 0 - - 0.0
04/03:00am 13.3 14.1 12.4 94 0.5 CALM 0 0 0 0 - - 0.0
04/02:30am 13.2 13.9 12.3 94 0.5 CALM 0 0 0 0 - - 0.0
04/02:00am 13.2 13.9 12.3 94 0.5 CALM 0 0 0 0 - - 0.0
04/01:30am 13.2 13.9 12.3 94 0.5 CALM 0 0 0 0 - - 0.0
04/01:00am 13.1 13.8 12.2 94 0.5 CALM 0 0 0 0 - - 0.0
04/12:30am 13.1 13.8 12.2 94 0.5 CALM 0 0 0 0 - - 0.0
04/12:00am 13.1 13.8 12.2 94 0.5 CALM 0 0 0 0 - - 0.0
 
Date/Time
WST
Temp
°C
App
Temp
°C
Dew
Point
Rel
Hum
%
Delta-T
°C
Wind Press
QNH
hPa
Press
MSL
hPa
Rain
since 9 am
mm
Dir
 
Spd
km/h
Gust
km/h
Spd
kts
Gust
kts
03/11:30pm 13.1 13.8 12.2 94 0.5 CALM 0 0 0 0 - - 0.0
03/11:00pm 12.9 13.5 12.0 94 0.5 CALM 0 0 0 0 - - 0.0
03/10:30pm 12.5 12.9 11.4 93 0.6 CALM 0 0 0 0 - - 0.0
03/10:00pm 12.6 13.1 11.7 94 0.5 CALM 0 0 0 0 - - 0.0
03/09:30pm 12.3 12.7 11.4 94 0.5 CALM 0 0 0 0 - - 0.0
03/09:00pm 11.8 12.0 10.7 93 0.6 CALM 0 0 0 0 - - 0.0
03/08:30pm 10.4 10.2 9.0 91 0.7 CALM 0 0 0 0 - - 0.0
03/08:00pm 11.5 11.6 10.1 91 0.7 CALM 0 0 0 0 - - 0.0
03/07:30pm 12.2 12.4 10.6 90 0.8 CALM 0 0 0 0 - - 0.0
03/07:00pm 13.4 13.9 11.6 89 1.0 CALM 0 0 0 0 - - 0.0
03/06:30pm 14.6 15.5 12.8 89 1.0 CALM 0 0 0 0 - - 0.0
03/06:00pm 14.8 15.5 12.3 85 1.4 CALM 0 0 0 0 - - 0.0
03/05:30pm 16.2 16.0 12.9 81 1.8 W 6 9 3 5 - - 0.0
03/05:00pm 17.8 17.6 13.5 76 2.5 W 7 11 4 6 - - 0.0
03/04:30pm 17.7 17.5 13.6 77 2.3 SW 7 11 4 6 - - 0.0
03/04:00pm 18.2 17.6 13.5 74 2.7 W 9 17 5 9 - - 0.0
03/03:30pm 18.1 18.8 13.4 74 2.7 SW 2 7 1 4 - - 0.0
03/03:00pm 18.1 17.8 13.4 74 2.7 SW 7 15 4 8 - - 0.0
03/02:30pm 18.2 17.8 13.1 72 2.9 SW 7 15 4 8 - - 0.0
03/02:00pm 19.2 18.8 12.9 67 3.6 WSW 7 13 4 7 - - 0.0
03/01:30pm 19.4 17.9 13.1 67 3.6 NW 13 20 7 11 - - 0.0
03/01:00pm 18.4 18.1 12.6 69 3.3 W 6 13 3 7 - - 0.0
03/12:30pm 18.3 19.0 13.4 73 2.8 N 2 6 1 3 - - 0.0
03/12:00pm 17.3 18.7 14.4 83 1.7 CALM 0 0 0 0 - - 0.0
03/11:30am 16.3 16.5 14.1 87 1.3 N 6 9 3 5 - - 0.0
03/11:00am 15.2 16.4 13.9 92 0.7 CALM 0 0 0 0 - - 0.0
03/10:30am 14.4 14.7 13.4 94 0.6 NNW 4 7 2 4 - - 0.0
03/10:00am 13.7 14.2 12.9 95 0.4 NNE 2 7 1 4 - - 0.0
03/09:30am 13.4 14.2 12.6 95 0.4 CALM 0 0 0 0 - - 0.0
03/09:00am 13.2 14.0 12.4 95 0.4 CALM 0 0 0 0 - - 0.2
03/08:30am 13.1 13.1 12.3 95 0.4 NE 4 7 2 4 - - 0.2
03/08:00am 13.0 13.7 12.1 94 0.5 CALM 0 0 0 0 - - 0.2
03/07:30am 12.8 13.4 11.9 94 0.5 CALM 0 0 0 0 - - 0.2
03/07:00am 12.6 13.1 11.7 94 0.5 CALM 0 0 0 0 - - 0.2
03/06:30am 12.7 13.3 11.8 94 0.5 CALM 0 0 0 0 - - 0.2
03/06:00am 12.5 13.0 11.6 94 0.5 CALM 0 0 0 0 - - 0.2
03/05:30am 12.3 12.7 11.4 94 0.5 CALM 0 0 0 0 - - 0.2
03/05:00am 12.1 12.5 11.2 94 0.5 CALM 0 0 0 0 - - 0.2
03/04:30am 11.7 12.0 10.8 94 0.5 CALM 0 2 0 1 - - 0.2
03/04:00am 11.5 11.7 10.6 94 0.5 CALM 0 0 0 0 - - 0.2
03/03:30am 11.2 11.3 10.1 93 0.6 CALM 0 7 0 4 - - 0.2
03/03:00am 11.6 11.8 10.5 93 0.6 CALM 0 0 0 0 - - 0.2
03/02:30am 11.1 11.2 10.0 93 0.6 CALM 0 0 0 0 - - 0.2
03/02:00am 11.8 12.0 10.7 93 0.6 CALM 0 0 0 0 - - 0.2
03/01:30am 12.1 12.4 11.0 93 0.6 CALM 0 0 0 0 - - 0.2
03/01:00am 12.1 12.4 11.0 93 0.6 CALM 0 0 0 0 - - 0.2
03/12:30am 12.3 12.7 11.2 93 0.6 CALM 0 0 0 0 - - 0.2
03/12:00am 12.1 12.4 11.0 93 0.6 CALM 0 4 0 2 - - 0.2
 
Date/Time
WST
Temp
°C
App
Temp
°C
Dew
Point
Rel
Hum
%
Delta-T
°C
Wind Press
QNH
hPa
Press
MSL
hPa
Rain
since 9 am
mm
Dir
 
Spd
km/h
Gust
km/h
Spd
kts
Gust
kts
02/11:30pm 11.7 11.8 10.3 91 0.7 CALM 0 0 0 0 - - 0.2
02/11:00pm 12.6 12.9 11.0 90 0.8 CALM 0 0 0 0 - - 0.2
02/10:30pm 13.6 13.0 10.4 81 1.7 NNW 4 9 2 5 - - 0.0
02/10:00pm 13.9 11.9 10.1 78 2.0 NNW 11 15 6 8 - - 0.0
02/09:30pm 13.7 12.0 9.9 78 2.0 N 9 15 5 8 - - 0.0
02/09:00pm 12.1 12.1 9.8 86 1.2 CALM 0 0 0 0 - - 0.0
02/08:30pm 12.1 12.2 10.0 87 1.1 CALM 0 0 0 0 - - 0.0
02/08:00pm 12.1 12.1 9.7 85 1.2 CALM 0 0 0 0 - - 0.0
02/07:30pm 12.6 12.7 10.0 84 1.3 CALM 0 0 0 0 - - 0.0
02/07:00pm 12.6 12.7 10.0 84 1.3 CALM 0 0 0 0 - - 0.0
02/06:30pm 13.1 13.2 10.1 82 1.6 CALM 0 0 0 0 - - 0.0
02/06:00pm 13.8 13.7 9.6 76 2.2 CALM 0 0 0 0 - - 0.0
02/05:30pm 15.7 15.3 9.8 68 3.1 N 2 7 1 4 - - 0.0

Other Formats:

Comma delimited format used in spreadsheet applications
http://www.bom.gov.au/fwo/IDW60801/IDW60801.95621.axf

JavaScript Object Notation format (JSON) in row-major order
http://www.bom.gov.au/fwo/IDW60801/IDW60801.95621.json